Time;durP1;ratioP1;P1;durP2;ratioP2;P2;SDS_P1;SDS_P2;PMS_P1;PMS_P2;Temp;Humidity;BMP_temperature;BMP_pressure;BME280_temperature;BME280_humidity;BME280_pressure;Samples;Min_cycle;Max_cycle;Signal;HPM_P1;HPM_P2
2024/03/12 00:01:43;;;;;;;;;;;20.10;50.50;;;;;;1501720;78;746;-78
2024/03/12 00:03:46;;;;;;;;;;;20.00;50.40;;;;;;1501362;78;1105;-78
2024/03/12 00:05:48;;;;;;;;;;;20.10;50.50;;;;;;1503721;78;729;-80
2024/03/12 00:07:51;;;;;;;;;;;20.10;50.60;;;;;;1499024;78;679;-77
2024/03/12 00:09:52;;;;;;;;;;;20.00;50.50;;;;;;1510260;78;764;-76
2024/03/12 00:11:55;;;;;;;;;;;20.10;50.60;;;;;;1507364;78;721;-78
2024/03/12 00:13:57;;;;;;;;;;;20.10;50.60;;;;;;1510451;78;1172;-76
2024/03/12 00:16:00;;;;;;;;;;;20.00;50.50;;;;;;1502173;78;652;-77
2024/03/12 00:18:06;;;;;;;;;;;20.10;50.60;;;;;;1500796;78;1907;-78
2024/03/12 00:20:15;;;;;;;;;;;20.10;50.70;;;;;;1496861;78;1027;-78
2024/03/12 00:22:11;;;;;;;;;;;20.20;50.70;;;;;;1502283;78;1475;-78
2024/03/12 00:24:13;;;;;;;;;;;20.00;50.60;;;;;;1502166;78;787;-78
2024/03/12 00:26:15;;;;;;;;;;;20.00;50.60;;;;;;1503130;78;727;-75
2024/03/12 00:28:17;;;;;;;;;;;20.00;50.60;;;;;;1502279;78;852;-78
2024/03/12 00:30:19;;;;;;;;;;;20.00;50.70;;;;;;1493994;78;760;-78
2024/03/12 00:32:20;;;;;;;;;;;20.00;50.70;;;;;;1499060;78;1141;-76
2024/03/12 00:34:22;;;;;;;;;;;20.20;50.90;;;;;;1495755;78;704;-77
2024/03/12 00:36:24;;;;;;;;;;;20.10;50.90;;;;;;1502362;78;1921;-77
2024/03/12 00:38:28;;;;;;;;;;;20.10;50.90;;;;;;1508834;78;748;-80
2024/03/12 00:40:40;;;;;;;;;;;20.10;51.00;;;;;;1497916;78;798;-77
2024/03/12 00:42:42;;;;;;;;;;;20.10;51.00;;;;;;1495382;78;1716;-74
2024/03/12 00:44:48;;;;;;;;;;;20.10;51.00;;;;;;1499150;78;677;-75
2024/03/12 00:46:48;;;;;;;;;;;20.10;51.10;;;;;;1505621;78;1449;-75
2024/03/12 00:48:49;;;;;;;;;;;20.10;51.10;;;;;;1496161;77;714;-77
2024/03/12 00:50:51;;;;;;;;;;;20.10;51.20;;;;;;1503109;78;734;-78
2024/03/12 00:52:53;;;;;;;;;;;20.10;51.10;;;;;;1502566;78;1117;-78
2024/03/12 00:54:55;;;;;;;;;;;20.10;51.10;;;;;;1509999;78;715;-79
2024/03/12 00:56:57;;;;;;;;;;;20.10;51.20;;;;;;1502660;78;1968;-78
2024/03/12 00:58:59;;;;;;;;;;;20.10;51.20;;;;;;1507174;78;737;-79
2024/03/12 01:01:03;;;;;;;;;;;20.10;51.30;;;;;;1502168;78;754;-76
2024/03/12 01:03:14;;;;;;;;;;;20.10;51.20;;;;;;1501614;78;1136;-76
2024/03/12 01:05:08;;;;;;;;;;;20.10;51.20;;;;;;1507268;78;1139;-78
2024/03/12 01:07:12;;;;;;;;;;;20.10;51.20;;;;;;1499448;78;688;-74
2024/03/12 01:09:17;;;;;;;;;;;20.10;51.20;;;;;;1503137;78;733;-78
2024/03/12 01:11:17;;;;;;;;;;;20.10;51.30;;;;;;1504412;78;1485;-77
2024/03/12 01:13:20;;;;;;;;;;;20.10;51.30;;;;;;1497019;78;1133;-78
2024/03/12 01:15:23;;;;;;;;;;;20.10;51.30;;;;;;1495393;78;613;-76
2024/03/12 01:17:25;;;;;;;;;;;20.10;51.30;;;;;;1505182;78;1910;-78
2024/03/12 01:19:27;;;;;;;;;;;20.10;51.30;;;;;;1506484;78;788;-77
2024/03/12 01:21:32;;;;;;;;;;;20.10;51.30;;;;;;1504608;78;746;-77
2024/03/12 01:23:32;;;;;;;;;;;20.10;51.30;;;;;;1503225;78;1166;-78
2024/03/12 01:25:35;;;;;;;;;;;20.10;51.30;;;;;;1509719;78;719;-80
2024/03/12 01:27:37;;;;;;;;;;;20.10;51.30;;;;;;1500887;78;722;-77
2024/03/12 01:29:39;;;;;;;;;;;20.10;51.40;;;;;;1502699;78;656;-76
2024/03/12 01:31:41;;;;;;;;;;;20.10;51.40;;;;;;1509830;78;779;-78
2024/03/12 01:33:43;;;;;;;;;;;20.10;51.40;;;;;;1502887;77;1112;-77
2024/03/12 01:35:46;;;;;;;;;;;20.10;51.40;;;;;;1509166;78;630;-77
2024/03/12 01:37:57;;;;;;;;;;;20.10;51.50;;;;;;1504803;78;1919;-77
2024/03/12 01:39:58;;;;;;;;;;;20.10;51.50;;;;;;1498779;78;1009;-77
2024/03/12 01:42:00;;;;;;;;;;;20.20;51.50;;;;;;1502121;78;732;-75
2024/03/12 01:44:08;;;;;;;;;;;20.10;51.50;;;;;;1504562;78;724;-77
2024/03/12 01:46:09;;;;;;;;;;;20.10;51.50;;;;;;1500593;78;1110;-76
2024/03/12 01:48:11;;;;;;;;;;;20.10;51.50;;;;;;1495676;78;585;-76
2024/03/12 01:50:13;;;;;;;;;;;20.10;51.50;;;;;;1508017;78;762;-79
2024/03/12 01:52:17;;;;;;;;;;;20.10;51.50;;;;;;1498326;78;1154;-76
2024/03/12 01:54:19;;;;;;;;;;;20.10;51.50;;;;;;1500439;78;1135;-80
2024/03/12 01:56:21;;;;;;;;;;;20.10;51.60;;;;;;1505910;78;708;-80
2024/03/12 01:58:23;;;;;;;;;;;20.00;51.50;;;;;;1506829;78;1940;-80
2024/03/12 02:00:25;;;;;;;;;;;20.10;51.50;;;;;;1503942;78;697;-78
2024/03/12 02:02:27;;;;;;;;;;;20.10;51.60;;;;;;1499033;78;1153;-80
2024/03/12 02:04:29;;;;;;;;;;;20.10;51.60;;;;;;1499366;78;618;-81
2024/03/12 02:06:31;;;;;;;;;;;20.10;51.60;;;;;;1500989;78;723;-80
2024/03/12 02:08:33;;;;;;;;;;;20.00;51.50;;;;;;1499933;78;737;-80
2024/03/12 02:10:34;;;;;;;;;;;20.10;51.70;;;;;;1506489;78;732;-82
2024/03/12 02:12:36;;;;;;;;;;;20.00;51.50;;;;;;1498161;78;1129;-78
2024/03/12 02:14:38;;;;;;;;;;;20.10;51.70;;;;;;1509124;78;751;-78
2024/03/12 02:16:40;;;;;;;;;;;20.10;51.80;;;;;;1502710;78;779;-78
2024/03/12 02:18:42;;;;;;;;;;;20.10;51.80;;;;;;1499470;78;1936;-79
2024/03/12 02:20:44;;;;;;;;;;;20.20;51.80;;;;;;1503488;78;761;-77
2024/03/12 02:22:46;;;;;;;;;;;20.00;51.60;;;;;;1510574;78;1228;-77
2024/03/12 02:24:49;;;;;;;;;;;20.10;51.80;;;;;;1506387;78;758;-79
2024/03/12 02:26:53;;;;;;;;;;;20.10;51.80;;;;;;1498938;78;728;-79
2024/03/12 02:28:55;;;;;;;;;;;20.10;51.90;;;;;;1497948;78;710;-79
2024/03/12 02:30:56;;;;;;;;;;;20.20;51.90;;;;;;1498428;78;776;-77
2024/03/12 02:32:59;;;;;;;;;;;20.10;51.80;;;;;;1499596;78;1112;-78
2024/03/12 02:35:01;;;;;;;;;;;20.10;51.80;;;;;;1499985;78;771;-78
2024/03/12 02:37:03;;;;;;;;;;;20.10;51.90;;;;;;1499766;78;1924;-77
2024/03/12 02:39:06;;;;;;;;;;;20.20;51.90;;;;;;1501191;78;626;-76
2024/03/12 02:41:10;;;;;;;;;;;20.10;51.90;;;;;;1504955;78;1048;-80
2024/03/12 02:43:13;;;;;;;;;;;20.10;52.00;;;;;;1502823;78;1146;-79
2024/03/12 02:45:15;;;;;;;;;;;20.20;51.90;;;;;;1512303;78;706;-81
2024/03/12 02:47:20;;;;;;;;;;;20.10;52.00;;;;;;1499353;78;707;-78
2024/03/12 02:49:22;;;;;;;;;;;20.10;52.00;;;;;;1497129;78;1639;-78
2024/03/12 02:51:26;;;;;;;;;;;20.10;52.10;;;;;;1501941;78;734;-78
2024/03/12 02:53:28;;;;;;;;;;;20.10;52.10;;;;;;1506265;78;1108;-77
2024/03/12 02:55:30;;;;;;;;;;;20.10;52.10;;;;;;1510425;78;745;-79
2024/03/12 02:57:32;;;;;;;;;;;20.20;52.10;;;;;;1502492;78;1933;-78
2024/03/12 02:59:33;;;;;;;;;;;20.10;52.00;;;;;;1506972;78;770;-79
2024/03/12 03:01:35;;;;;;;;;;;20.10;52.00;;;;;;1495167;78;717;-78
2024/03/12 03:03:37;;;;;;;;;;;20.10;52.10;;;;;;1505361;78;1150;-80
2024/03/12 03:05:41;;;;;;;;;;;20.10;52.00;;;;;;1498583;78;718;-80
2024/03/12 03:07:43;;;;;;;;;;;20.10;52.10;;;;;;1504198;78;737;-81
2024/03/12 03:09:45;;;;;;;;;;;20.10;52.10;;;;;;1509817;78;731;-77
2024/03/12 03:11:46;;;;;;;;;;;20.10;52.10;;;;;;1510183;78;805;-75
2024/03/12 03:13:48;;;;;;;;;;;20.10;52.10;;;;;;1504278;78;1136;-82
2024/03/12 03:15:51;;;;;;;;;;;20.10;52.10;;;;;;1500254;78;769;-79
2024/03/12 03:17:53;;;;;;;;;;;20.20;52.10;;;;;;1499660;78;1910;-77
2024/03/12 03:19:55;;;;;;;;;;;20.20;52.00;;;;;;1495044;78;745;-78
2024/03/12 03:21:57;;;;;;;;;;;20.20;52.10;;;;;;1497053;78;712;-78
2024/03/12 03:23:58;;;;;;;;;;;20.10;52.10;;;;;;1502715;78;1169;-76
2024/03/12 03:26:00;;;;;;;;;;;20.20;52.10;;;;;;1507017;78;639;-77
2024/03/12 03:28:02;;;;;;;;;;;20.20;52.10;;;;;;1502710;78;643;-77
2024/03/12 03:30:06;;;;;;;;;;;20.20;52.00;;;;;;1499053;78;729;-78
2024/03/12 03:32:08;;;;;;;;;;;20.10;52.00;;;;;;1500807;78;1978;-77
2024/03/12 03:34:10;;;;;;;;;;;20.10;52.00;;;;;;1488898;79;823;-76
2024/03/12 03:36:15;;;;;;;;;;;20.10;52.10;;;;;;1502294;78;908;-76
2024/03/12 03:38:17;;;;;;;;;;;20.10;52.00;;;;;;1499077;78;1940;-78
2024/03/12 03:40:22;;;;;;;;;;;20.10;52.10;;;;;;1506709;78;765;-78
2024/03/12 03:42:24;;;;;;;;;;;20.10;52.10;;;;;;1504157;78;1184;-78
2024/03/12 03:44:28;;;;;;;;;;;20.10;52.10;;;;;;1501822;78;643;-78
2024/03/12 03:46:30;;;;;;;;;;;20.20;52.10;;;;;;1503399;78;735;-77
2024/03/12 03:48:31;;;;;;;;;;;20.10;52.10;;;;;;1501795;78;613;-80
2024/03/12 03:50:33;;;;;;;;;;;20.10;52.10;;;;;;1504102;78;755;-78
2024/03/12 03:52:36;;;;;;;;;;;20.10;52.10;;;;;;1505270;77;1103;-75
2024/03/12 03:54:38;;;;;;;;;;;20.10;52.20;;;;;;1510420;78;742;-75
2024/03/12 03:56:40;;;;;;;;;;;20.10;52.10;;;;;;1506497;78;789;-75
2024/03/12 03:58:47;;;;;;;;;;;20.10;52.10;;;;;;1501881;78;1923;-78
2024/03/12 04:00:46;;;;;;;;;;;20.10;52.20;;;;;;1504207;77;1032;-76
2024/03/12 04:02:48;;;;;;;;;;;20.10;52.20;;;;;;1505914;77;1182;-79
2024/03/12 04:04:50;;;;;;;;;;;20.10;52.20;;;;;;1501188;78;527;-77
2024/03/12 04:06:51;;;;;;;;;;;20.10;52.20;;;;;;1493710;78;725;-76
2024/03/12 04:08:53;;;;;;;;;;;20.20;52.30;;;;;;1500532;78;722;-77
2024/03/12 04:10:55;;;;;;;;;;;20.20;52.20;;;;;;1501128;78;663;-74
2024/03/12 04:12:57;;;;;;;;;;;20.20;52.30;;;;;;1499048;78;1143;-78
2024/03/12 04:14:59;;;;;;;;;;;20.10;52.20;;;;;;1504035;78;817;-78
2024/03/12 04:17:02;;;;;;;;;;;20.10;52.30;;;;;;1502528;78;737;-79
2024/03/12 04:19:04;;;;;;;;;;;20.10;52.20;;;;;;1496440;78;1916;-79
2024/03/12 04:21:06;;;;;;;;;;;20.20;52.20;;;;;;1501454;78;750;-79
2024/03/12 04:23:08;;;;;;;;;;;20.10;52.30;;;;;;1500097;78;1117;-80
2024/03/12 04:25:10;;;;;;;;;;;20.10;52.20;;;;;;1503373;78;733;-79
2024/03/12 04:27:16;;;;;;;;;;;20.10;52.30;;;;;;1505349;78;739;-78
2024/03/12 04:29:15;;;;;;;;;;;20.20;52.20;;;;;;1499208;78;1586;-78
2024/03/12 04:31:20;;;;;;;;;;;20.10;52.20;;;;;;1506075;78;680;-79
2024/03/12 04:33:21;;;;;;;;;;;20.20;52.20;;;;;;1497781;78;1665;-78
2024/03/12 04:35:23;;;;;;;;;;;20.10;52.10;;;;;;1498068;78;789;-80
2024/03/12 04:37:25;;;;;;;;;;;20.10;52.10;;;;;;1498184;78;635;-79
2024/03/12 04:39:33;;;;;;;;;;;20.10;52.10;;;;;;1503617;78;1937;-77
2024/03/12 04:41:36;;;;;;;;;;;20.10;52.10;;;;;;1498653;78;641;-78
2024/03/12 04:43:41;;;;;;;;;;;20.10;52.10;;;;;;1506265;77;1206;-81
2024/03/12 04:45:42;;;;;;;;;;;20.20;52.10;;;;;;1499647;78;1206;-78
2024/03/12 04:47:44;;;;;;;;;;;20.20;52.10;;;;;;1501867;78;686;-82
2024/03/12 04:49:51;;;;;;;;;;;20.20;52.10;;;;;;1504323;78;739;-78
2024/03/12 04:51:50;;;;;;;;;;;20.10;52.10;;;;;;1500869;78;1627;-83
2024/03/12 04:53:52;;;;;;;;;;;20.10;52.10;;;;;;1506983;78;1092;-78
2024/03/12 04:55:54;;;;;;;;;;;20.10;52.10;;;;;;1504568;78;723;-78
2024/03/12 04:57:56;;;;;;;;;;;20.10;52.10;;;;;;1505153;78;1931;-78
2024/03/12 04:59:58;;;;;;;;;;;20.10;52.10;;;;;;1508867;78;694;-79
2024/03/12 05:02:00;;;;;;;;;;;20.10;52.10;;;;;;1503354;78;785;-76
2024/03/12 05:04:01;;;;;;;;;;;20.10;52.10;;;;;;1503169;78;1202;-75
2024/03/12 05:06:03;;;;;;;;;;;20.10;52.30;;;;;;1503468;78;926;-73
2024/03/12 05:08:06;;;;;;;;;;;20.10;52.30;;;;;;1507660;78;728;-78
2024/03/12 05:10:08;;;;;;;;;;;20.20;52.30;;;;;;1504812;78;752;-77
2024/03/12 05:12:09;;;;;;;;;;;20.10;52.30;;;;;;1507257;78;1136;-82
2024/03/12 05:14:11;;;;;;;;;;;20.20;52.30;;;;;;1509715;78;795;-82
2024/03/12 05:16:13;;;;;;;;;;;20.20;52.20;;;;;;1504277;78;701;-77
2024/03/12 05:18:15;;;;;;;;;;;20.20;52.20;;;;;;1513338;78;1933;-77
2024/03/12 05:20:23;;;;;;;;;;;20.10;52.10;;;;;;1508888;78;729;-77
2024/03/12 05:22:23;;;;;;;;;;;20.20;52.10;;;;;;1498566;78;1618;-77
2024/03/12 05:24:25;;;;;;;;;;;20.20;52.20;;;;;;1506542;78;726;-77
2024/03/12 05:26:28;;;;;;;;;;;20.20;52.10;;;;;;1507899;78;719;-77
2024/03/12 05:28:32;;;;;;;;;;;20.10;52.10;;;;;;1497887;77;749;-80
2024/03/12 05:30:35;;;;;;;;;;;20.20;52.20;;;;;;1503809;78;694;-76
2024/03/12 05:32:41;;;;;;;;;;;20.10;52.10;;;;;;1503384;78;1154;-76
2024/03/12 05:34:43;;;;;;;;;;;20.20;52.20;;;;;;1499671;78;726;-76
2024/03/12 05:36:55;;;;;;;;;;;20.10;52.20;;;;;;1506477;78;741;-78
2024/03/12 05:39:47;;;;;;;;;;;20.10;52.30;;;;;;1502079;78;1914;-78
2024/03/12 05:48:09;;;;;;;;;;;20.10;52.30;;;;;;1498464;78;1949;-75
2024/03/12 05:50:14;;;;;;;;;;;20.20;52.40;;;;;;1496681;78;667;-77
2024/03/12 05:52:15;;;;;;;;;;;20.20;52.50;;;;;;1498952;78;1685;-76
2024/03/12 05:54:17;;;;;;;;;;;20.20;52.50;;;;;;1500468;78;685;-75
2024/03/12 05:56:19;;;;;;;;;;;20.20;52.70;;;;;;1503873;77;608;-76
2024/03/12 05:58:21;;;;;;;;;;;20.20;52.60;;;;;;1501082;78;1924;-75
2024/03/12 06:00:23;;;;;;;;;;;20.20;52.60;;;;;;1507615;78;852;-78
2024/03/12 06:02:26;;;;;;;;;;;20.20;52.70;;;;;;1498787;78;1202;-78
2024/03/12 06:04:32;;;;;;;;;;;20.20;52.60;;;;;;1499794;78;878;-75
2024/03/12 06:06:32;;;;;;;;;;;20.20;52.70;;;;;;1507089;78;1483;-74
2024/03/12 06:08:35;;;;;;;;;;;20.30;52.80;;;;;;1500799;78;804;-77
2024/03/12 06:10:36;;;;;;;;;;;20.20;52.20;;;;;;1495248;78;739;-77
2024/03/12 06:12:38;;;;;;;;;;;20.20;52.20;;;;;;1501834;78;1172;-76
2024/03/12 06:14:40;;;;;;;;;;;20.20;52.00;;;;;;1500912;78;705;-78
2024/03/12 06:16:44;;;;;;;;;;;20.20;51.70;;;;;;1496501;78;724;-76
2024/03/12 06:18:46;;;;;;;;;;;20.20;51.30;;;;;;1497162;78;1923;-76
2024/03/12 06:20:49;;;;;;;;;;;20.10;50.90;;;;;;1502340;78;721;-76
2024/03/12 06:22:51;;;;;;;;;;;20.20;50.50;;;;;;1512219;78;1176;-77
2024/03/12 06:24:53;;;;;;;;;;;20.10;50.60;;;;;;1501884;78;627;-76
2024/03/12 06:26:55;;;;;;;;;;;20.10;50.30;;;;;;1498917;78;783;-78
2024/03/12 06:28:58;;;;;;;;;;;20.10;49.90;;;;;;1505490;78;773;-76
2024/03/12 06:31:00;;;;;;;;;;;20.00;49.50;;;;;;1506380;78;733;-76
2024/03/12 06:33:02;;;;;;;;;;;20.00;49.40;;;;;;1499729;78;1136;-76
2024/03/12 06:35:04;;;;;;;;;;;20.10;49.30;;;;;;1502009;78;925;-77
2024/03/12 06:37:06;;;;;;;;;;;20.00;48.80;;;;;;1508075;78;646;-78
2024/03/12 06:39:08;;;;;;;;;;;20.00;48.60;;;;;;1507087;78;1936;-74
2024/03/12 06:41:12;;;;;;;;;;;20.00;48.60;;;;;;1508360;78;726;-80
2024/03/12 06:43:17;;;;;;;;;;;20.00;48.80;;;;;;1505271;78;1202;-79
2024/03/12 06:45:18;;;;;;;;;;;20.00;48.30;;;;;;1510804;78;1121;-78
2024/03/12 06:47:20;;;;;;;;;;;19.90;48.30;;;;;;1510999;78;784;-75
2024/03/12 06:49:23;;;;;;;;;;;19.90;48.10;;;;;;1504020;78;669;-77
2024/03/12 06:51:26;;;;;;;;;;;19.90;47.90;;;;;;1503862;78;804;-77
2024/03/12 06:53:28;;;;;;;;;;;19.90;47.90;;;;;;1503113;78;1171;-76
2024/03/12 06:55:30;;;;;;;;;;;19.90;47.70;;;;;;1511367;78;791;-75
2024/03/12 06:57:34;;;;;;;;;;;19.90;47.30;;;;;;1501041;78;762;-75
2024/03/12 06:59:36;;;;;;;;;;;19.90;47.40;;;;;;1496903;78;1934;-77
2024/03/12 07:01:41;;;;;;;;;;;19.90;47.30;;;;;;1501696;78;764;-75
2024/03/12 07:03:43;;;;;;;;;;;19.80;47.10;;;;;;1499290;78;1191;-76
2024/03/12 07:05:46;;;;;;;;;;;19.90;46.80;;;;;;1503782;78;727;-78
2024/03/12 07:07:48;;;;;;;;;;;19.80;46.80;;;;;;1503008;78;1519;-76
2024/03/12 07:09:51;;;;;;;;;;;19.80;46.70;;;;;;1510307;78;743;-78
2024/03/12 07:11:58;;;;;;;;;;;19.80;46.70;;;;;;1504522;78;688;-77
2024/03/12 07:14:02;;;;;;;;;;;19.80;46.80;;;;;;1499806;78;1114;-76
2024/03/12 07:16:03;;;;;;;;;;;19.70;46.70;;;;;;1512219;78;946;-77
2024/03/12 07:18:05;;;;;;;;;;;19.70;46.70;;;;;;1496228;78;954;-77
2024/03/12 07:20:11;;;;;;;;;;;19.70;46.50;;;;;;1500573;78;1907;-76
2024/03/12 07:22:11;;;;;;;;;;;19.70;46.60;;;;;;1503085;78;1151;-77
2024/03/12 07:24:13;;;;;;;;;;;19.80;46.30;;;;;;1511193;78;738;-78
2024/03/12 07:26:16;;;;;;;;;;;19.70;46.00;;;;;;1501150;78;724;-79
2024/03/12 07:28:18;;;;;;;;;;;19.70;45.80;;;;;;1498720;78;679;-77
2024/03/12 07:30:24;;;;;;;;;;;19.70;45.80;;;;;;1501482;78;889;-77
2024/03/12 07:32:26;;;;;;;;;;;19.70;46.00;;;;;;1499560;78;1150;-77
2024/03/12 07:34:29;;;;;;;;;;;19.60;45.60;;;;;;1508842;78;764;-78
2024/03/12 07:36:31;;;;;;;;;;;19.60;45.40;;;;;;1512152;77;705;-76
2024/03/12 07:38:33;;;;;;;;;;;19.70;45.50;;;;;;1495718;78;897;-76
2024/03/12 07:40:38;;;;;;;;;;;19.70;45.50;;;;;;1502585;78;1936;-80
2024/03/12 07:42:41;;;;;;;;;;;19.60;45.40;;;;;;1498687;78;1156;-77
2024/03/12 07:44:44;;;;;;;;;;;19.60;45.40;;;;;;1497136;78;946;-79
2024/03/12 07:46:46;;;;;;;;;;;19.60;45.00;;;;;;1506237;78;726;-77
2024/03/12 07:48:47;;;;;;;;;;;19.50;44.90;;;;;;1507338;78;769;-76
2024/03/12 07:50:49;;;;;;;;;;;19.50;44.80;;;;;;1505907;78;818;-76
2024/03/12 07:52:51;;;;;;;;;;;19.60;45.00;;;;;;1507469;78;1172;-78
2024/03/12 07:54:53;;;;;;;;;;;19.50;45.30;;;;;;1504925;78;704;-81
2024/03/12 07:56:55;;;;;;;;;;;19.60;45.00;;;;;;1510277;78;754;-84
2024/03/12 07:58:57;;;;;;;;;;;19.50;44.70;;;;;;1510351;78;1924;-79
2024/03/12 08:01:01;;;;;;;;;;;19.60;44.50;;;;;;1506414;78;727;-75
2024/03/12 08:03:03;;;;;;;;;;;19.50;44.50;;;;;;1504666;78;1108;-77
2024/03/12 08:05:05;;;;;;;;;;;19.50;44.60;;;;;;1502220;78;713;-82
2024/03/12 08:07:06;;;;;;;;;;;19.50;44.70;;;;;;1500064;78;723;-80
2024/03/12 08:09:08;;;;;;;;;;;19.50;44.40;;;;;;1504684;78;695;-78
2024/03/12 08:11:10;;;;;;;;;;;19.50;44.60;;;;;;1515512;78;668;-81
2024/03/12 08:13:12;;;;;;;;;;;19.50;44.30;;;;;;1509136;78;1158;-83
2024/03/12 08:15:14;;;;;;;;;;;19.40;44.30;;;;;;1505398;78;621;-81
2024/03/12 08:17:17;;;;;;;;;;;19.40;44.20;;;;;;1507708;78;729;-78
2024/03/12 08:19:19;;;;;;;;;;;19.50;44.30;;;;;;1507260;78;1905;-81
2024/03/12 08:21:21;;;;;;;;;;;19.40;44.20;;;;;;1504337;78;676;-84
2024/03/12 08:23:23;;;;;;;;;;;19.40;44.10;;;;;;1508510;78;1155;-82
2024/03/12 08:25:25;;;;;;;;;;;19.40;44.10;;;;;;1509034;78;768;-80
2024/03/12 08:27:27;;;;;;;;;;;19.40;44.10;;;;;;1507721;78;734;-82
2024/03/12 08:29:29;;;;;;;;;;;19.40;44.20;;;;;;1506898;78;744;-77
2024/03/12 08:31:33;;;;;;;;;;;19.40;43.90;;;;;;1506812;78;722;-75
2024/03/12 08:33:34;;;;;;;;;;;19.40;44.00;;;;;;1507584;77;1474;-79
2024/03/12 08:35:36;;;;;;;;;;;19.40;43.90;;;;;;1504103;78;731;-79
2024/03/12 08:37:38;;;;;;;;;;;19.40;43.90;;;;;;1501070;78;794;-81
2024/03/12 08:39:40;;;;;;;;;;;19.40;43.80;;;;;;1503747;78;1948;-83
2024/03/12 08:41:42;;;;;;;;;;;19.40;43.80;;;;;;1505581;78;721;-78
2024/03/12 08:43:44;;;;;;;;;;;19.40;43.90;;;;;;1506267;78;1132;-82
2024/03/12 08:45:46;;;;;;;;;;;19.30;43.70;;;;;;1498917;78;735;-79
2024/03/12 08:47:47;;;;;;;;;;;19.40;43.80;;;;;;1506137;78;712;-78
2024/03/12 08:49:50;;;;;;;;;;;19.40;43.70;;;;;;1506649;78;808;-78
2024/03/12 08:51:51;;;;;;;;;;;19.30;43.60;;;;;;1508462;78;686;-75
2024/03/12 08:53:55;;;;;;;;;;;19.30;43.70;;;;;;1503848;78;1159;-79
2024/03/12 08:56:00;;;;;;;;;;;19.40;43.60;;;;;;1496667;78;772;-79
2024/03/12 08:58:01;;;;;;;;;;;19.40;43.50;;;;;;1493427;78;764;-84
2024/03/12 09:00:10;;;;;;;;;;;19.30;43.60;;;;;;1494468;78;1946;-78
2024/03/12 09:02:07;;;;;;;;;;;19.40;43.50;;;;;;1498558;77;1165;-80
2024/03/12 09:04:09;;;;;;;;;;;19.30;43.50;;;;;;1498637;78;768;-74
2024/03/12 09:06:11;;;;;;;;;;;19.30;43.70;;;;;;1504257;78;678;-74
2024/03/12 09:08:14;;;;;;;;;;;19.40;43.90;;;;;;1502637;78;708;-74
2024/03/12 09:10:16;;;;;;;;;;;19.30;44.00;;;;;;1502875;77;1111;-74
2024/03/12 09:12:21;;;;;;;;;;;19.40;44.20;;;;;;1508322;77;1285;-75
2024/03/12 09:14:23;;;;;;;;;;;19.40;44.30;;;;;;1500901;78;1080;-77
2024/03/12 09:16:25;;;;;;;;;;;19.40;44.40;;;;;;1502695;77;1149;-76
2024/03/12 09:18:27;;;;;;;;;;;19.40;44.50;;;;;;1508047;77;1366;-77
2024/03/12 09:20:29;;;;;;;;;;;19.40;44.70;;;;;;1499833;77;1939;-78
2024/03/12 09:22:31;;;;;;;;;;;19.50;44.90;;;;;;1500576;77;1357;-74
2024/03/12 09:24:34;;;;;;;;;;;19.50;45.00;;;;;;1496980;77;1361;-73
2024/03/12 09:26:36;;;;;;;;;;;19.40;45.00;;;;;;1501732;78;676;-78
2024/03/12 09:28:38;;;;;;;;;;;19.40;45.10;;;;;;1505392;78;754;-76
2024/03/12 09:30:40;;;;;;;;;;;19.50;45.20;;;;;;1502331;78;806;-80
2024/03/12 09:32:42;;;;;;;;;;;19.50;45.40;;;;;;1503910;78;1148;-77
2024/03/12 09:34:43;;;;;;;;;;;19.50;45.50;;;;;;1495962;78;713;-76
2024/03/12 09:36:45;;;;;;;;;;;19.60;45.50;;;;;;1497637;78;755;-77
2024/03/12 09:38:51;;;;;;;;;;;19.50;45.60;;;;;;1504882;78;782;-74
2024/03/12 09:40:54;;;;;;;;;;;19.50;45.70;;;;;;1510307;78;1921;-75
2024/03/12 09:42:55;;;;;;;;;;;19.60;45.70;;;;;;1505295;78;1160;-77
2024/03/12 09:44:57;;;;;;;;;;;19.60;45.80;;;;;;1504985;78;780;-76
2024/03/12 09:46:59;;;;;;;;;;;19.70;46.00;;;;;;1511447;78;681;-74
2024/03/12 09:49:01;;;;;;;;;;;19.60;45.90;;;;;;1501284;78;690;-75
2024/03/12 09:51:05;;;;;;;;;;;19.60;46.00;;;;;;1505822;78;729;-75
2024/03/12 09:53:07;;;;;;;;;;;19.60;46.00;;;;;;1503968;77;1468;-79
2024/03/12 09:55:14;;;;;;;;;;;19.60;46.10;;;;;;1505984;77;1191;-76
2024/03/12 09:57:12;;;;;;;;;;;19.60;46.20;;;;;;1509802;78;1085;-74
2024/03/12 09:59:14;;;;;;;;;;;19.60;46.20;;;;;;1509585;77;776;-76
2024/03/12 10:01:16;;;;;;;;;;;19.60;46.30;;;;;;1502483;78;1936;-76
2024/03/12 10:03:18;;;;;;;;;;;19.70;46.50;;;;;;1505611;78;1168;-77
2024/03/12 10:05:25;;;;;;;;;;;19.60;46.40;;;;;;1505790;78;813;-75
2024/03/12 10:07:24;;;;;;;;;;;19.60;46.50;;;;;;1500092;78;1035;-71
2024/03/12 10:09:31;;;;;;;;;;;19.60;46.50;;;;;;1502590;78;673;-78
2024/03/12 10:11:32;;;;;;;;;;;19.70;46.70;;;;;;1504217;78;932;-74
2024/03/12 10:13:36;;;;;;;;;;;19.70;46.70;;;;;;1506925;78;1201;-74
2024/03/12 10:15:37;;;;;;;;;;;19.70;46.80;;;;;;1502707;78;1456;-79
2024/03/12 10:17:39;;;;;;;;;;;19.70;46.80;;;;;;1505734;78;658;-76
2024/03/12 10:19:43;;;;;;;;;;;19.70;46.80;;;;;;1505312;78;771;-76
2024/03/12 10:21:45;;;;;;;;;;;19.70;46.90;;;;;;1505013;78;743;-74
2024/03/12 10:23:47;;;;;;;;;;;19.70;46.90;;;;;;1510556;78;1145;-80
2024/03/12 10:25:49;;;;;;;;;;;19.70;46.90;;;;;;1502959;77;1354;-75
2024/03/12 10:27:54;;;;;;;;;;;19.70;47.10;;;;;;1502295;78;708;-75
2024/03/12 10:29:57;;;;;;;;;;;19.70;47.10;;;;;;1507951;78;742;-75
2024/03/12 10:32:00;;;;;;;;;;;19.80;47.10;;;;;;1498024;78;799;-75
2024/03/12 10:34:03;;;;;;;;;;;19.80;47.10;;;;;;1508475;78;1082;-74
2024/03/12 10:36:05;;;;;;;;;;;19.80;47.20;;;;;;1497935;78;930;-73
2024/03/12 10:38:07;;;;;;;;;;;19.70;47.30;;;;;;1508553;78;950;-75
2024/03/12 10:40:14;;;;;;;;;;;19.70;47.20;;;;;;1498886;78;1935;-71
2024/03/12 10:42:16;;;;;;;;;;;19.80;47.30;;;;;;1502783;78;1189;-78
2024/03/12 10:44:18;;;;;;;;;;;19.70;46.90;;;;;;1491733;78;1179;-75
2024/03/12 10:46:21;;;;;;;;;;;19.80;47.10;;;;;;1500931;78;788;-75
2024/03/12 10:48:23;;;;;;;;;;;19.70;47.20;;;;;;1500429;78;769;-74
2024/03/12 10:50:25;;;;;;;;;;;19.80;47.20;;;;;;1502501;78;749;-79
2024/03/12 10:52:28;;;;;;;;;;;19.70;47.20;;;;;;1503078;78;1225;-76
2024/03/12 10:54:32;;;;;;;;;;;19.70;47.30;;;;;;1509896;77;1322;-79
2024/03/12 10:56:34;;;;;;;;;;;19.80;47.30;;;;;;1501377;78;1449;-79
2024/03/12 10:58:37;;;;;;;;;;;19.80;47.30;;;;;;1503008;78;731;-75
2024/03/12 11:00:42;;;;;;;;;;;19.80;47.40;;;;;;1504470;78;1909;-75
2024/03/12 11:02:44;;;;;;;;;;;19.80;47.30;;;;;;1508307;78;1170;-75
2024/03/12 11:04:48;;;;;;;;;;;19.80;47.40;;;;;;1498239;78;803;-80
2024/03/12 11:06:50;;;;;;;;;;;19.80;47.40;;;;;;1501278;78;648;-82
2024/03/12 11:08:52;;;;;;;;;;;19.80;47.50;;;;;;1502729;78;746;-80
2024/03/12 11:10:54;;;;;;;;;;;19.80;47.50;;;;;;1506749;78;856;-75
2024/03/12 11:12:56;;;;;;;;;;;19.90;47.60;;;;;;1511228;77;1170;-74
2024/03/12 11:14:58;;;;;;;;;;;19.70;47.60;;;;;;1504720;78;723;-75
2024/03/12 11:17:00;;;;;;;;;;;19.80;47.60;;;;;;1510199;78;752;-75
2024/03/12 11:19:17;;;;;;;;;;;19.80;47.60;;;;;;1506128;78;722;-77
2024/03/12 11:21:19;;;;;;;;;;;19.80;47.60;;;;;;1505856;78;1905;-75
2024/03/12 11:23:21;;;;;;;;;;;19.80;47.60;;;;;;1487631;79;1145;-78
2024/03/12 11:25:43;;;;;;;;;;;19.80;47.60;;;;;;1479497;79;755;-75
2024/03/12 11:27:46;;;;;;;;;;;19.80;47.60;;;;;;1510568;78;1108;-76
2024/03/12 11:30:08;;;;;;;;;;;19.80;47.70;;;;;;1504948;78;654;-74
2024/03/12 11:32:08;;;;;;;;;;;19.90;47.80;;;;;;1505917;78;1101;-74
2024/03/12 11:34:15;;;;;;;;;;;19.70;47.70;;;;;;1507257;78;714;-78
2024/03/12 11:36:24;;;;;;;;;;;19.80;47.70;;;;;;1506656;78;833;-76
2024/03/12 11:38:32;;;;;;;;;;;19.80;47.80;;;;;;1505859;78;917;-76
2024/03/12 11:40:39;;;;;;;;;;;19.80;47.70;;;;;;1497916;77;1908;-74
2024/03/12 11:42:41;;;;;;;;;;;19.80;47.80;;;;;;1507506;78;1143;-77
2024/03/12 11:44:54;;;;;;;;;;;19.80;47.80;;;;;;1505814;78;702;-75
2024/03/12 11:46:56;;;;;;;;;;;19.90;47.90;;;;;;1497711;78;682;-75
2024/03/12 11:48:58;;;;;;;;;;;19.80;47.80;;;;;;1505088;78;753;-73
2024/03/12 11:51:00;;;;;;;;;;;19.80;47.80;;;;;;1499771;77;698;-75
2024/03/12 11:53:22;;;;;;;;;;;19.80;47.80;;;;;;1508775;78;1162;-75
2024/03/12 11:55:43;;;;;;;;;;;19.80;47.80;;;;;;1504382;78;782;-75
2024/03/12 11:57:45;;;;;;;;;;;19.80;47.80;;;;;;1503019;78;726;-76
2024/03/12 11:59:50;;;;;;;;;;;19.80;47.90;;;;;;1479368;79;1313;-76
2024/03/12 12:01:52;;;;;;;;;;;19.80;47.80;;;;;;1500367;78;1941;-74
2024/03/12 12:03:55;;;;;;;;;;;19.80;47.90;;;;;;1507895;78;1073;-75
2024/03/12 12:05:58;;;;;;;;;;;19.90;48.00;;;;;;1502537;78;767;-76
2024/03/12 12:08:01;;;;;;;;;;;19.80;47.90;;;;;;1508625;78;736;-74
2024/03/12 12:10:03;;;;;;;;;;;19.80;47.90;;;;;;1505741;78;1894;-79
2024/03/12 12:12:10;;;;;;;;;;;19.80;47.90;;;;;;1503892;78;735;-74
2024/03/12 12:14:12;;;;;;;;;;;19.80;48.00;;;;;;1512836;78;710;-73
2024/03/12 12:16:17;;;;;;;;;;;19.80;47.90;;;;;;1504598;78;690;-74
2024/03/12 12:18:19;;;;;;;;;;;19.90;48.00;;;;;;1496666;78;774;-74
2024/03/12 12:20:21;;;;;;;;;;;19.80;47.90;;;;;;1499344;78;868;-81